Time;durP1;ratioP1;P1;durP2;ratioP2;P2;SDS_P1;SDS_P2;PMS_P1;PMS_P2;Temp;Humidity;BMP_temperature;BMP_pressure;BME280_temperature;BME280_humidity;BME280_pressure;Samples;Min_cycle;Max_cycle;Signal;HPM_P1;HPM_P2
2022/04/15 00:00:56;;;;;;;26.48;14.48;;;;;;;4.67;65.28;93935.25;5090990;28;20016;-38
2022/04/15 00:03:21;;;;;;;15.27;9.07;;;;;;;4.68;64.70;93933.97;5090867;28;20020;-38
2022/04/15 00:05:47;;;;;;;25.38;15.77;;;;;;;4.72;64.18;93934.47;5090900;28;20024;-38
2022/04/15 00:08:13;;;;;;;30.77;17.75;;;;;;;4.67;64.84;93927.03;5091057;28;20023;-37
2022/04/15 00:10:41;;;;;;;21.85;13.30;;;;;;;4.74;63.86;93931.25;5090763;28;20024;-37
2022/04/15 00:13:11;;;;;;;22.50;13.02;;;;;;;4.42;65.94;93930.75;5090387;28;20485;-38
2022/04/15 00:15:40;;;;;;;17.92;10.93;;;;;;;4.42;66.16;93923.31;5090761;28;20020;-37
2022/04/15 00:18:06;;;;;;;9.10;6.50;;;;;;;4.48;65.94;93928.78;5101611;28;20024;-38
2022/04/15 00:20:32;;;;;;;16.30;8.75;;;;;;;4.48;64.83;93915.84;5111169;28;20028;-38
2022/04/15 00:23:00;;;;;;;24.92;10.75;;;;;;;4.40;64.26;93906.66;5111210;28;20020;-37
2022/04/15 00:25:26;;;;;;;21.80;11.67;;;;;;;4.64;64.62;93900.69;5111014;28;20057;-37
2022/04/15 00:27:52;;;;;;;19.83;12.70;;;;;;;4.81;63.17;93917.09;5111134;28;20513;-37
2022/04/15 00:30:19;;;;;;;21.17;14.30;;;;;;;4.69;64.02;93923.78;5110958;28;20492;-38
2022/04/15 00:32:44;;;;;;;18.05;11.65;;;;;;;4.58;63.56;93914.38;5110725;28;20031;-38
2022/04/15 00:35:10;;;;;;;30.02;16.83;;;;;;;4.20;65.22;93887.78;5110725;28;20027;-37
2022/04/15 00:37:36;;;;;;;26.52;12.90;;;;;;;4.16;65.69;93909.13;5111135;28;20072;-38
2022/04/15 00:40:03;;;;;;;36.13;21.65;;;;;;;3.98;65.44;93912.38;5101808;28;20486;-37
2022/04/15 00:42:30;;;;;;;36.22;20.60;;;;;;;4.00;65.75;93914.59;5090308;28;20044;-38
2022/04/15 00:44:59;;;;;;;27.10;15.18;;;;;;;4.06;66.45;93916.09;5090630;28;20099;-38
2022/04/15 00:47:37;;;;;;;30.33;17.83;;;;;;;3.96;66.26;93922.28;5090574;28;20078;-37
2022/04/15 00:50:04;;;;;;;22.80;14.13;;;;;;;3.69;66.63;93885.50;5090324;28;20547;-37
2022/04/15 00:52:39;;;;;;;25.15;16.20;;;;;;;3.69;66.51;93904.59;5090173;28;20032;-37
2022/04/15 00:55:05;;;;;;;20.85;12.25;;;;;;;3.74;66.67;93926.47;5090616;28;20020;-38
2022/04/15 00:57:33;;;;;;;35.10;16.13;;;;;;;3.55;66.30;93913.75;5090514;28;20027;-38
2022/04/15 01:00:00;;;;;;;44.47;17.67;;;;;;;3.62;65.57;93924.19;5090507;28;20429;-38
2022/04/15 01:02:26;;;;;;;34.17;14.90;;;;;;;3.36;66.22;93899.78;5090219;28;20171;-38
2022/04/15 01:04:52;;;;;;;63.70;26.15;;;;;;;3.50;66.60;93917.22;5088874;28;20592;-38
2022/04/15 01:07:20;;;;;;;44.17;19.92;;;;;;;3.67;65.84;93924.22;5090183;28;20576;-38
2022/04/15 01:09:47;;;;;;;20.63;10.73;;;;;;;3.78;65.42;93909.84;5088979;28;20090;-37
2022/04/15 01:12:13;;;;;;;17.48;9.23;;;;;;;3.79;65.93;93908.59;5089069;28;20056;-38
2022/04/15 01:14:39;;;;;;;14.27;8.50;;;;;;;3.57;66.40;93916.75;5103619;28;20031;-37
2022/04/15 01:17:05;;;;;;;26.73;14.90;;;;;;;3.44;66.72;93895.38;5110625;28;20024;-38
2022/04/15 01:19:30;;;;;;;26.92;16.35;;;;;;;3.53;66.76;93911.50;5110343;28;20098;-37
2022/04/15 01:21:56;;;;;;;22.90;11.85;;;;;;;3.47;67.21;93912.72;5110298;28;20026;-37
2022/04/15 01:24:23;;;;;;;18.95;11.55;;;;;;;3.55;67.07;93911.03;5109430;28;20020;-37
2022/04/15 01:26:49;;;;;;;18.90;10.18;;;;;;;3.47;67.55;93908.03;5110292;28;20129;-38
2022/04/15 01:29:15;;;;;;;15.93;9.50;;;;;;;3.42;67.30;93913.47;5110562;28;20524;-38
2022/04/15 01:31:40;;;;;;;17.95;10.20;;;;;;;3.49;67.28;93916.47;5112919;28;20050;-38
2022/04/15 01:34:06;;;;;;;13.05;8.25;;;;;;;3.46;67.65;93906.53;5114309;28;20027;-37
2022/04/15 01:36:31;;;;;;;13.90;6.78;;;;;;;3.38;67.80;93910.25;5114393;28;20027;-38
2022/04/15 01:38:58;;;;;;;12.85;7.57;;;;;;;3.33;68.12;93900.03;5114368;28;20015;-37
2022/04/15 01:41:24;;;;;;;15.43;8.38;;;;;;;3.33;67.95;93906.25;5093321;28;20543;-37
2022/04/15 01:43:49;;;;;;;9.55;7.10;;;;;;;3.27;67.57;93908.19;5093569;28;20020;-37
2022/04/15 01:46:15;;;;;;;14.95;7.25;;;;;;;3.14;67.77;93909.88;5093490;28;20161;-37
2022/04/15 01:48:40;;;;;;;9.82;6.90;;;;;;;3.13;67.99;93897.47;5093508;28;20035;-37
2022/04/15 01:51:06;;;;;;;12.20;6.55;;;;;;;2.75;69.05;93877.69;5093439;28;20027;-37
2022/04/15 01:53:31;;;;;;;11.88;6.60;;;;;;;2.98;68.19;93898.41;5093315;28;20034;-38
2022/04/15 01:55:56;;;;;;;9.40;5.75;;;;;;;2.93;67.64;93904.56;5093669;28;20408;-38
2022/04/15 01:58:22;;;;;;;7.53;5.15;;;;;;;2.86;68.40;93902.31;5093308;28;20466;-37
2022/04/15 02:00:47;;;;;;;6.45;5.43;;;;;;;2.77;68.89;93905.22;5093641;28;20492;-37
2022/04/15 02:03:13;;;;;;;10.10;5.88;;;;;;;2.57;69.39;93902.63;5093462;28;20373;-37
2022/04/15 02:05:38;;;;;;;12.30;6.53;;;;;;;2.69;69.81;93897.97;5093121;28;20565;-38
2022/04/15 02:08:04;;;;;;;12.38;6.20;;;;;;;2.65;69.73;93894.75;5093138;28;20053;-37
2022/04/15 02:10:29;;;;;;;9.90;5.40;;;;;;;2.74;69.41;93891.81;5103545;28;20095;-38
2022/04/15 02:12:55;;;;;;;14.82;6.63;;;;;;;2.83;69.24;93891.63;5112612;28;20015;-37
2022/04/15 02:15:20;;;;;;;18.33;7.47;;;;;;;2.91;68.25;93893.41;5092951;28;20485;-38
2022/04/15 02:17:45;;;;;;;20.60;10.88;;;;;;;2.90;68.27;93891.19;5092997;28;20031;-37
2022/04/15 02:20:11;;;;;;;21.25;10.65;;;;;;;2.91;68.15;93885.22;5093196;28;20026;-38
2022/04/15 02:22:37;;;;;;;12.65;7.78;;;;;;;2.95;67.60;93893.91;5093145;28;20496;-37
2022/04/15 02:25:03;;;;;;;12.40;7.15;;;;;;;2.82;67.65;93885.44;5093040;28;20454;-38
2022/04/15 02:27:29;;;;;;;15.57;7.47;;;;;;;2.73;68.75;93887.63;5092783;28;20505;-37
2022/04/15 02:29:54;;;;;;;24.17;7.28;;;;;;;2.84;68.37;93891.13;5092685;28;20024;-37
2022/04/15 02:32:20;;;;;;;8.25;5.60;;;;;;;2.53;68.59;93885.78;5092565;28;20016;-37
2022/04/15 02:34:45;;;;;;;9.57;5.45;;;;;;;2.59;68.62;93891.25;5092897;28;20027;-37
2022/04/15 02:37:11;;;;;;;12.48;6.55;;;;;;;2.48;69.30;93888.44;5092856;28;20085;-38
2022/04/15 02:39:36;;;;;;;10.77;6.72;;;;;;;2.44;69.04;93893.38;5097899;28;20019;-38
2022/04/15 02:42:01;;;;;;;17.65;10.93;;;;;;;2.42;69.53;93898.56;5112085;28;20044;-38
2022/04/15 02:44:28;;;;;;;15.75;8.93;;;;;;;2.44;69.45;93899.59;5111957;28;20027;-37
2022/04/15 02:46:57;;;;;;;11.73;7.72;;;;;;;2.12;69.61;93870.88;5111502;28;20020;-38
2022/04/15 02:49:23;;;;;;;17.40;7.30;;;;;;;2.40;70.02;93893.59;5112736;28;20034;-37
2022/04/15 02:51:48;;;;;;;10.95;7.13;;;;;;;2.24;70.04;93894.22;5112705;28;20027;-37
2022/04/15 02:54:14;;;;;;;12.57;6.25;;;;;;;2.34;70.05;93892.81;5112507;28;20503;-37
2022/04/15 02:56:39;;;;;;;11.88;6.32;;;;;;;2.26;70.74;93889.78;5112563;28;20027;-37
2022/04/15 02:59:05;;;;;;;25.77;14.50;;;;;;;2.11;71.46;93896.59;5112760;28;20015;-37
2022/04/15 03:01:30;;;;;;;31.67;12.60;;;;;;;2.12;71.89;93893.38;5112755;28;20019;-37
2022/04/15 03:03:55;;;;;;;25.23;11.02;;;;;;;2.14;71.25;93892.91;5112679;28;20472;-38
2022/04/15 03:06:21;;;;;;;13.52;5.97;;;;;;;2.37;70.26;93888.38;5112405;28;20493;-37
2022/04/15 03:08:46;;;;;;;10.65;6.90;;;;;;;2.30;70.55;93884.84;5112578;27;20022;-38
2022/04/15 03:11:12;;;;;;;12.90;9.38;;;;;;;2.33;69.94;93887.84;5112426;28;20056;-38
2022/04/15 03:13:37;;;;;;;22.25;12.80;;;;;;;2.27;69.86;93883.09;5105756;28;20020;-38
2022/04/15 03:16:04;;;;;;;17.45;12.02;;;;;;;2.40;69.29;93885.44;5091658;28;20073;-38
2022/04/15 03:18:29;;;;;;;20.17;10.90;;;;;;;2.28;69.43;93879.16;5092035;28;20097;-37
2022/04/15 03:20:54;;;;;;;16.73;10.23;;;;;;;2.29;69.69;93893.53;5091932;28;20489;-37
2022/04/15 03:23:20;;;;;;;20.95;9.93;;;;;;;2.04;70.70;93886.13;5091654;28;20069;-37
2022/04/15 03:25:46;;;;;;;15.07;9.00;;;;;;;1.92;70.45;93885.31;5091639;28;20145;-38
2022/04/15 03:28:12;;;;;;;17.42;8.85;;;;;;;1.70;70.81;93848.97;5091428;28;20030;-37
2022/04/15 03:30:38;;;;;;;30.58;15.52;;;;;;;1.67;71.89;93894.22;5091598;28;20107;-37
2022/04/15 03:33:04;;;;;;;33.22;18.23;;;;;;;1.59;72.62;93895.13;5091765;28;20107;-37
2022/04/15 03:35:29;;;;;;;42.40;22.20;;;;;;;1.66;72.41;93892.75;5091732;28;20103;-38
2022/04/15 03:37:54;;;;;;;37.55;22.27;;;;;;;1.62;72.56;93892.22;5091637;28;20031;-37
2022/04/15 03:40:20;;;;;;;47.03;27.35;;;;;;;1.53;73.20;93897.81;5103142;28;20443;-38
2022/04/15 03:42:48;;;;;;;35.83;19.67;;;;;;;1.71;72.11;93902.91;5111591;28;20067;-37
2022/04/15 03:45:14;;;;;;;17.27;7.10;;;;;;;1.69;71.51;93910.81;5111823;28;20046;-37
2022/04/15 03:47:43;;;;;;;14.38;7.78;;;;;;;1.78;70.47;93912.63;5111869;28;20431;-37
2022/04/15 03:50:10;;;;;;;12.65;7.95;;;;;;;1.87;69.74;93905.06;5111582;28;20031;-37
2022/04/15 03:52:47;;;;;;;19.88;8.57;;;;;;;1.96;69.91;93898.69;5111541;28;20043;-37
2022/04/15 03:55:18;;;;;;;17.85;8.23;;;;;;;1.93;70.82;93900.41;5111019;28;20027;-37
2022/04/15 03:57:43;;;;;;;15.95;8.40;;;;;;;1.99;70.28;93901.19;5111320;28;20055;-38
2022/04/15 04:00:17;;;;;;;14.25;9.35;;;;;;;2.03;70.85;93911.88;5111323;28;20055;-37
2022/04/15 04:02:44;;;;;;;20.02;11.15;;;;;;;1.98;70.57;93913.34;5111144;28;20038;-38
2022/04/15 04:05:10;;;;;;;25.70;11.32;;;;;;;2.05;70.29;93909.44;5110327;28;20088;-37
2022/04/15 04:07:35;;;;;;;16.73;11.20;;;;;;;2.09;70.15;93909.94;5111533;28;20027;-37
2022/04/15 04:10:01;;;;;;;19.92;10.40;;;;;;;1.90;71.29;93911.53;5111412;28;20028;-37
2022/04/15 04:12:33;;;;;;;16.20;9.77;;;;;;;2.08;70.60;93903.75;5111086;28;20458;-37
2022/04/15 04:15:02;;;;;;;15.07;9.75;;;;;;;2.13;70.11;93908.50;5093005;28;20560;-37
2022/04/15 04:17:28;;;;;;;;;;;;;;;2.07;69.95;93909.69;5091220;28;20027;-37
2022/04/15 04:19:54;;;;;;;20.10;8.68;;;;;;;2.21;69.74;93909.56;5090923;28;19908;-37
2022/04/15 04:22:19;;;;;;;11.07;6.32;;;;;;;2.23;69.54;93915.25;5090658;28;20108;-37
2022/04/15 04:24:45;;;;;;;12.80;6.60;;;;;;;2.36;69.49;93911.41;5090898;28;20070;-37
2022/04/15 04:27:10;;;;;;;16.17;7.78;;;;;;;2.26;70.05;93910.84;5090831;28;20035;-37
2022/04/15 04:29:35;;;;;;;15.88;7.97;;;;;;;2.23;69.28;93918.00;5090819;28;20030;-37
2022/04/15 04:32:01;;;;;;;13.82;8.50;;;;;;;2.25;70.47;93917.53;5090446;28;20048;-37
2022/04/15 04:34:27;;;;;;;14.52;9.88;;;;;;;2.42;70.01;93912.94;5090486;28;20028;-38
2022/04/15 04:36:52;;;;;;;27.40;15.88;;;;;;;2.64;69.79;93915.78;5090376;28;20070;-37
2022/04/15 04:39:18;;;;;;;23.52;13.55;;;;;;;2.61;68.92;93922.25;5093581;28;20035;-37
2022/04/15 04:41:43;;;;;;;20.73;12.98;;;;;;;2.49;70.38;93928.81;5110667;28;20490;-37
2022/04/15 04:44:09;;;;;;;15.95;7.55;;;;;;;2.55;69.41;93924.19;5110695;28;20023;-37
2022/04/15 04:46:35;;;;;;;13.00;7.15;;;;;;;2.71;69.27;93926.25;5110876;28;20077;-37
2022/04/15 04:49:01;;;;;;;6.75;5.47;;;;;;;2.71;68.82;93930.97;5111011;28;20085;-37
2022/04/15 04:51:26;;;;;;;9.65;6.78;;;;;;;2.76;69.63;93927.53;5110639;28;20020;-37
2022/04/15 04:53:52;;;;;;;12.02;9.05;;;;;;;2.85;69.78;93930.06;5110693;28;20108;-37
2022/04/15 04:56:17;;;;;;;15.90;9.93;;;;;;;2.75;70.48;93928.78;5110592;28;20111;-37
2022/04/15 04:58:43;;;;;;;17.85;9.85;;;;;;;2.97;70.60;93912.53;5110674;28;20032;-38
2022/04/15 05:01:08;;;;;;;12.02;8.95;;;;;;;3.12;70.27;93921.28;5110601;28;20035;-37
2022/04/15 05:03:34;;;;;;;20.17;9.70;;;;;;;3.29;69.98;93932.28;5110452;28;20035;-37
2022/04/15 05:05:59;;;;;;;11.38;9.10;;;;;;;3.56;70.15;93928.88;5113570;28;20023;-37
2022/04/15 05:08:24;;;;;;;17.50;10.07;;;;;;;3.82;69.47;93927.47;5114930;28;20100;-37
2022/04/15 05:10:50;;;;;;;14.25;9.48;;;;;;;3.93;67.68;93921.28;5114583;28;20035;-38
2022/04/15 05:13:15;;;;;;;15.90;10.52;;;;;;;4.13;66.30;93915.63;5110886;28;20089;-37
2022/04/15 05:15:41;;;;;;;28.50;13.73;;;;;;;4.31;66.59;93920.56;5094147;28;20131;-37
2022/04/15 05:18:06;;;;;;;41.05;17.30;;;;;;;4.59;65.92;93932.25;5094304;28;20023;-38
2022/04/15 05:20:32;;;;;;;21.88;13.02;;;;;;;4.70;65.44;93928.75;5094335;28;20054;-38
2022/04/15 05:22:58;;;;;;;28.85;17.23;;;;;;;4.71;66.08;93927.53;5094161;28;20040;-38
2022/04/15 05:25:24;;;;;;;60.63;28.80;;;;;;;4.92;64.96;93926.00;5094250;28;20504;-38
2022/04/15 05:27:49;;;;;;;55.83;25.63;;;;;;;5.03;65.42;93925.22;5094212;28;20028;-38
2022/04/15 05:30:15;;;;;;;35.08;20.73;;;;;;;5.22;65.62;93923.44;5094130;28;20485;-38
2022/04/15 05:32:40;;;;;;;39.00;18.92;;;;;;;5.43;65.17;93913.66;5093807;28;20028;-38
2022/04/15 05:35:07;;;;;;;37.45;17.25;;;;;;;5.97;65.24;93914.66;5093736;28;20031;-38
2022/04/15 05:37:32;;;;;;;26.80;15.13;;;;;;;6.61;63.62;93918.69;5094129;28;20074;-38
2022/04/15 05:39:58;;;;;;;18.52;12.85;;;;;;;7.09;62.40;93912.50;5102140;28;20061;-38
2022/04/15 05:42:27;;;;;;;7.18;5.60;;;;;;;7.44;59.51;93917.09;5113851;28;20056;-38
2022/04/15 05:44:52;;;;;;;7.53;5.57;;;;;;;7.71;58.72;93905.03;5113959;28;20567;-38
2022/04/15 05:47:18;;;;;;;8.52;6.22;;;;;;;7.98;58.41;93900.44;5113931;28;20034;-38
2022/04/15 05:49:43;;;;;;;6.97;5.45;;;;;;;8.12;57.43;93899.97;5113920;28;20023;-38
2022/04/15 05:52:09;;;;;;;6.57;5.05;;;;;;;8.35;58.00;93898.41;5113743;28;20038;-38
2022/04/15 05:54:34;;;;;;;6.07;4.80;;;;;;;8.50;58.15;93903.44;5113604;28;20020;-38
2022/04/15 05:56:59;;;;;;;5.65;4.88;;;;;;;8.74;57.96;93905.31;5113761;28;20023;-38
2022/04/15 05:59:25;;;;;;;12.18;5.68;;;;;;;8.89;57.48;93903.53;5113623;28;20031;-38
2022/04/15 06:01:51;;;;;;;8.77;5.07;;;;;;;9.28;56.75;93908.34;5113655;28;20020;-38
2022/04/15 06:04:17;;;;;;;12.75;5.30;;;;;;;9.96;55.38;93891.97;5113880;28;20027;-38
2022/04/15 06:06:43;;;;;;;5.40;4.07;;;;;;;10.88;50.30;93895.88;5113490;28;20038;-38
2022/04/15 06:09:08;;;;;;;4.50;3.67;;;;;;;10.75;49.43;93900.72;5113786;28;20026;-38
2022/04/15 06:11:34;;;;;;;12.80;4.20;;;;;;;10.94;49.79;93906.78;5113449;27;20555;-38
2022/04/15 06:14:01;;;;;;;4.95;3.90;;;;;;;11.43;49.66;93899.25;5103495;27;20027;-38
2022/04/15 06:16:32;;;;;;;7.38;4.10;;;;;;;12.87;47.69;93889.44;5092104;28;20035;-38
2022/04/15 06:18:58;;;;;;;4.95;4.25;;;;;;;14.24;45.46;93883.09;5092925;28;20481;-39
2022/04/15 06:21:23;;;;;;;15.15;10.63;;;;;;;15.47;43.04;93887.31;5093167;28;20028;-39
2022/04/15 06:23:49;;;;;;;20.20;9.65;;;;;;;16.52;40.67;93894.53;5093125;28;20397;-39
2022/04/15 06:26:14;;;;;;;9.95;4.97;;;;;;;17.31;38.26;93893.03;5092782;28;20024;-39
2022/04/15 06:28:39;;;;;;;7.43;4.10;;;;;;;17.62;35.99;93884.19;5092765;28;20035;-39
2022/04/15 06:31:05;;;;;;;6.25;3.58;;;;;;;17.36;35.50;93885.69;5092905;28;20023;-40
2022/04/15 06:33:30;;;;;;;11.13;4.97;;;;;;;17.30;36.62;93883.16;5092896;28;20514;-39
2022/04/15 06:35:56;;;;;;;4.65;3.50;;;;;;;17.10;36.83;93892.81;5092863;28;20028;-39
2022/04/15 06:38:21;;;;;;;9.48;3.60;;;;;;;17.64;36.27;93887.84;5092651;28;20024;-39
2022/04/15 06:40:47;;;;;;;5.32;3.30;;;;;;;18.13;36.14;93892.91;5107635;28;20031;-39
2022/04/15 06:43:14;;;;;;;5.78;3.30;;;;;;;18.78;33.86;93894.78;5113122;28;20024;-39
2022/04/15 06:45:39;;;;;;;7.55;4.03;;;;;;;19.08;33.86;93885.72;5112787;27;20040;-39
2022/04/15 06:48:05;;;;;;;20.50;5.55;;;;;;;19.33;32.39;93886.06;5112644;28;20118;-38
2022/04/15 06:50:31;;;;;;;6.72;3.65;;;;;;;19.89;31.45;93883.56;5111719;28;20027;-39
2022/04/15 06:52:56;;;;;;;4.85;3.60;;;;;;;20.47;30.76;93875.47;5112544;28;20023;-39
2022/04/15 06:55:22;;;;;;;5.05;3.05;;;;;;;21.31;28.71;93882.19;5112650;28;20038;-39
2022/04/15 06:57:47;;;;;;;6.43;3.38;;;;;;;22.33;26.36;93873.50;5112570;28;20027;-39
2022/04/15 07:00:13;;;;;;;7.45;3.78;;;;;;;23.63;27.11;93854.66;5112480;28;20656;-39
2022/04/15 07:02:40;;;;;;;6.28;4.13;;;;;;;25.01;25.29;93856.59;5112784;28;20028;-39
2022/04/15 07:05:09;;;;;;;7.68;4.43;;;;;;;25.48;24.34;93860.22;5112640;28;20023;-39
2022/04/15 07:07:34;;;;;;;4.82;3.60;;;;;;;26.42;21.77;93866.50;5112335;28;20027;-40
2022/04/15 07:10:00;;;;;;;5.18;3.53;;;;;;;27.20;22.51;93860.44;5112586;28;20019;-40
2022/04/15 07:12:25;;;;;;;9.90;5.13;;;;;;;27.98;20.92;93862.00;5112403;28;20020;-40
2022/04/15 07:14:51;;;;;;;13.45;6.93;;;;;;;28.88;19.64;93853.03;5095172;28;20035;-40
2022/04/15 07:17:16;;;;;;;6.82;4.10;;;;;;;29.32;19.33;93845.94;5091741;28;20036;-38
2022/04/15 07:19:42;;;;;;;7.93;3.78;;;;;;;29.67;19.01;93859.06;5092054;28;20469;-38
2022/04/15 07:22:07;;;;;;;10.88;5.20;;;;;;;30.19;17.30;93862.69;5091655;28;20028;-38
2022/04/15 07:24:33;;;;;;;4.07;1.80;;;;;;;30.03;14.24;93865.81;5091659;28;20028;-37
2022/04/15 07:26:59;;;;;;;3.47;1.60;;;;;;;29.31;14.12;93855.84;5091932;28;20020;-38
2022/04/15 07:29:26;;;;;;;2.67;1.80;;;;;;;28.77;14.57;93860.50;5091800;28;20028;-37
2022/04/15 07:31:52;;;;;;;3.28;1.45;;;;;;;28.05;16.10;93855.88;5091867;28;20035;-39
2022/04/15 07:34:17;;;;;;;2.50;2.08;;;;;;;28.08;14.69;93851.72;5090221;28;20481;-40
2022/04/15 07:36:43;;;;;;;5.05;1.45;;;;;;;28.50;15.80;93858.16;5091378;28;20039;-40
2022/04/15 07:39:14;;;;;;;6.03;4.55;;;;;;;28.59;14.76;93859.88;5092841;28;20032;-40
2022/04/15 07:41:40;;;;;;;4.07;2.65;;;;;;;28.85;13.89;93855.06;5111376;28;20044;-39
2022/04/15 07:44:06;;;;;;;6.05;1.40;;;;;;;29.35;14.49;93860.91;5110732;28;20028;-39
2022/04/15 07:46:32;;;;;;;4.35;1.70;;;;;;;29.57;14.13;93855.91;5111597;28;20035;-40
2022/04/15 07:48:58;;;;;;;1.48;1.38;;;;;;;30.28;13.31;93861.50;5111403;28;20032;-38
2022/04/15 07:51:24;;;;;;;2.90;1.55;;;;;;;30.34;12.66;93853.88;5111779;28;20027;-38
2022/04/15 07:53:49;;;;;;;4.45;1.65;;;;;;;29.93;13.28;93854.84;5111650;28;20015;-39
2022/04/15 07:56:15;;;;;;;2.10;1.60;;;;;;;30.45;13.52;93857.72;5111753;28;20023;-38
2022/04/15 07:58:40;;;;;;;3.63;1.50;;;;;;;29.48;13.46;93848.50;5111717;28;20476;-40
2022/04/15 08:01:06;;;;;;;2.13;1.50;;;;;;;29.68;13.57;93855.53;5111248;28;20417;-40
2022/04/15 08:03:32;;;;;;;2.33;1.50;;;;;;;30.27;14.31;93846.53;5111382;28;20469;-40
2022/04/15 08:05:58;;;;;;;2.95;1.33;;;;;;;30.59;14.53;93841.00;5111527;28;20023;-40
2022/04/15 08:08:24;;;;;;;1.90;1.33;;;;;;;31.15;12.27;93848.09;5111475;28;20508;-40
2022/04/15 08:10:51;;;;;;;3.78;1.77;;;;;;;31.67;13.60;93845.00;5111212;28;20020;-41
2022/04/15 08:13:17;;;;;;;2.05;1.55;;;;;;;31.98;12.65;93841.41;5107282;28;20478;-40
2022/04/15 08:15:42;;;;;;;1.35;1.25;;;;;;;31.25;12.13;93834.06;5090755;28;20057;-40
2022/04/15 08:18:07;;;;;;;3.25;1.83;;;;;;;31.57;14.19;93839.81;5089413;28;20020;-40
2022/04/15 08:20:33;;;;;;;3.63;1.60;;;;;;;32.56;12.97;93839.69;5090689;28;20031;-40
2022/04/15 08:22:58;;;;;;;2.80;1.60;;;;;;;33.51;12.19;93832.66;5090924;28;20028;-40
2022/04/15 08:25:24;;;;;;;1.95;1.35;;;;;;;33.48;12.35;93831.19;5090927;28;20382;-41
2022/04/15 08:27:49;;;;;;;4.88;1.92;;;;;;;33.82;12.98;93823.09;5090588;28;20023;-41
2022/04/15 08:30:15;;;;;;;2.65;1.65;;;;;;;33.90;11.16;93826.03;5090781;28;20027;-41
2022/04/15 08:32:40;;;;;;;7.90;2.30;;;;;;;33.70;12.48;93825.78;5090490;28;20024;-41
2022/04/15 08:35:08;;;;;;;3.03;1.25;;;;;;;33.44;10.55;93814.66;5090433;28;20485;-41
2022/04/15 08:37:34;;;;;;;2.30;2.07;;;;;;;33.27;10.26;93809.38;5090803;28;20499;-40
2022/04/15 08:40:03;;;;;;;1.50;1.40;;;;;;;32.68;10.18;93811.28;5098527;28;20032;-41
2022/04/15 08:42:29;;;;;;;2.53;1.60;;;;;;;31.94;10.67;93796.34;5110629;28;20100;-40
2022/04/15 08:44:56;;;;;;;2.28;1.60;;;;;;;32.32;12.16;93804.91;5109452;28;20462;-40
2022/04/15 08:47:21;;;;;;;2.10;1.80;;;;;;;32.39;10.48;93791.47;5110990;28;20444;-38
2022/04/15 08:49:47;;;;;;;5.35;2.13;;;;;;;31.68;12.08;93797.94;5110635;28;20032;-38
2022/04/15 08:52:17;;;;;;;2.45;1.70;;;;;;;31.84;10.94;93798.25;5110485;28;20023;-38
2022/04/15 08:54:44;;;;;;;1.65;1.42;;;;;;;31.50;11.36;93794.69;5110905;28;20514;-40
2022/04/15 08:57:09;;;;;;;2.28;1.58;;;;;;;31.38;11.25;93792.97;5110593;28;20032;-41
2022/04/15 08:59:35;;;;;;;2.40;1.65;;;;;;;31.20;11.99;93789.00;5110566;28;20084;-40
2022/04/15 09:02:01;;;;;;;5.68;1.90;;;;;;;31.16;12.30;93783.94;5111010;28;20038;-40
2022/04/15 09:04:26;;;;;;;1.98;1.50;;;;;;;31.52;12.41;93781.19;5110762;28;20416;-40
2022/04/15 09:06:56;;;;;;;3.25;2.00;;;;;;;31.99;13.22;93774.28;5110760;28;20046;-40
2022/04/15 09:09:29;;;;;;;2.00;1.55;;;;;;;32.84;12.84;93777.25;5110506;28;20114;-41
2022/04/15 09:11:59;;;;;;;2.85;1.75;;;;;;;33.30;10.64;93762.94;5110442;28;20148;-41
2022/04/15 09:14:25;;;;;;;2.30;1.30;;;;;;;33.34;12.10;93757.28;5097065;28;20575;-38
2022/04/15 09:16:50;;;;;;;4.78;1.67;;;;;;;33.19;13.40;93758.50;5088913;28;20056;-39
2022/04/15 09:19:17;;;;;;;2.17;1.75;;;;;;;33.63;13.80;93764.13;5090074;28;20416;-39
2022/04/15 09:21:54;;;;;;;2.40;1.50;;;;;;;34.37;11.35;93760.69;5090294;28;20103;-39
2022/04/15 09:24:33;;;;;;;7.63;1.98;;;;;;;34.20;10.29;93751.19;5090054;28;20533;-39
2022/04/15 09:27:03;;;;;;;2.75;1.60;;;;;;;34.34;12.32;93754.94;5090015;28;20028;-39
2022/04/15 09:29:36;;;;;;;3.60;1.60;;;;;;;35.06;11.08;93748.41;5090247;28;20034;-39
2022/04/15 09:32:08;;;;;;;2.17;1.70;;;;;;;35.43;12.02;93750.03;5089941;28;20055;-40
2022/04/15 09:34:34;;;;;;;4.20;1.80;;;;;;;35.58;10.67;93740.13;5089792;28;20066;-39
2022/04/15 09:37:05;;;;;;;2.30;1.85;;;;;;;35.92;11.31;93736.66;5089930;28;20024;-39
2022/04/15 09:39:30;;;;;;;3.58;1.83;;;;;;;35.96;11.98;93741.72;5094774;28;20055;-38
2022/04/15 09:41:56;;;;;;;2.33;1.83;;;;;;;36.02;11.45;93736.72;5110098;28;20047;-39
2022/04/15 09:44:23;;;;;;;3.53;1.40;;;;;;;35.91;8.87;93732.34;5110520;28;20042;-39
2022/04/15 09:46:57;;;;;;;1.63;1.20;;;;;;;35.06;10.19;93731.19;5110438;28;20120;-38
2022/04/15 09:49:24;;;;;;;2.55;1.52;;;;;;;34.06;10.81;93722.38;5110165;28;20691;-39
2022/04/15 09:51:53;;;;;;;4.18;1.70;;;;;;;34.52;9.42;93727.88;5111066;28;20515;-41
2022/04/15 09:54:27;;;;;;;1.55;1.00;;;;;;;35.13;8.80;93724.03;5113740;28;20034;-39
2022/04/15 09:56:59;;;;;;;2.90;1.25;;;;;;;35.44;9.75;93722.78;5114154;28;20060;-40
2022/04/15 09:59:27;;;;;;;1.35;1.05;;;;;;;35.50;8.85;93705.59;5114002;27;20028;-39
2022/04/15 10:01:59;;;;;;;4.25;1.40;;;;;;;36.00;9.19;93721.59;5113781;28;20035;-39
2022/04/15 10:04:25;;;;;;;1.58;1.45;;;;;;;36.01;8.85;93720.19;5112443;28;20105;-40
2022/04/15 10:06:52;;;;;;;1.50;1.20;;;;;;;36.21;9.29;93715.19;5113875;28;20155;-40
2022/04/15 10:09:19;;;;;;;2.38;1.52;;;;;;;36.02;8.41;93715.88;5113879;27;20098;-39
2022/04/15 10:11:45;;;;;;;2.60;1.10;;;;;;;35.78;9.35;93708.59;5113525;28;20057;-39
2022/04/15 10:14:12;;;;;;;2.15;1.50;;;;;;;35.36;7.85;93699.06;5113368;28;20016;-39
2022/04/15 10:16:39;;;;;;;2.83;2.15;;;;;;;35.42;10.23;93705.53;5113700;28;20027;-39
2022/04/15 10:19:05;;;;;;;3.80;2.55;;;;;;;34.96;10.55;93699.50;5113661;28;20027;-38
2022/04/15 10:21:37;;;;;;;3.45;2.22;;;;;;;35.64;10.60;93697.06;5113374;28;20149;-39
2022/04/15 10:24:03;;;;;;;1.77;1.65;;;;;;;35.32;9.63;93688.28;5112030;28;20031;-39
2022/04/15 10:26:59;;;;;;;1.70;1.50;;;;;;;35.15;9.06;93695.34;5113527;28;20066;-39
2022/04/15 10:29:24;;;;;;;3.88;1.80;;;;;;;34.97;9.96;93698.81;5112223;28;20508;-40
2022/04/15 10:31:52;;;;;;;3.03;1.70;;;;;;;35.15;9.84;93692.47;5112002;28;20081;-40
2022/04/15 10:34:19;;;;;;;4.22;1.60;;;;;;;35.64;9.82;93687.72;5106460;28;20024;-41
2022/04/15 10:36:52;;;;;;;2.47;1.42;;;;;;;36.00;9.60;93682.09;5092989;28;20051;-41
2022/04/15 10:39:23;;;;;;;2.78;1.80;;;;;;;36.13;9.67;93677.06;5094946;28;20032;-39
2022/04/15 10:41:49;;;;;;;1.98;1.65;;;;;;;35.75;9.76;93684.16;5092438;28;20052;-39
2022/04/15 10:44:39;;;;;;;2.22;1.67;;;;;;;35.54;8.82;93676.19;5092493;28;20105;-40
2022/04/15 10:47:12;;;;;;;1.98;1.70;;;;;;;35.38;9.24;93676.09;5092730;28;20055;-40
2022/04/15 10:49:40;;;;;;;3.00;1.85;;;;;;;35.35;8.69;93683.25;5091245;28;20032;-40
2022/04/15 10:52:21;;;;;;;3.53;2.08;;;;;;;35.46;8.68;93668.22;5092384;28;20031;-40
2022/04/15 10:54:51;;;;;;;2.25;1.73;;;;;;;35.00;8.28;93650.78;5092271;28;20051;-39
2022/04/15 10:57:18;;;;;;;2.35;1.85;;;;;;;34.58;9.03;93664.81;5092240;28;20016;-39
2022/04/15 11:02:50;;;;;;;2.65;1.80;;;;;;;35.44;9.32;93658.88;5092174;28;20072;-40
2022/04/15 11:05:41;;;;;;;3.22;1.65;;;;;;;35.65;9.14;93661.13;5092032;28;20024;-39
2022/04/15 11:08:10;;;;;;;1.70;1.60;;;;;;;35.27;9.45;93657.38;5088764;28;20036;-39
2022/04/15 11:11:03;;;;;;;2.17;1.63;;;;;;;35.02;7.86;93651.50;5091902;28;20016;-40
2022/04/15 11:13:32;;;;;;;3.33;2.33;;;;;;;34.68;8.96;93653.41;5096633;28;20107;-39
2022/04/15 11:16:04;;;;;;;2.28;1.80;;;;;;;33.80;10.66;93656.19;5112171;28;20055;-39
2022/04/15 11:19:00;;;;;;;3.50;2.00;;;;;;;33.86;9.48;93648.38;5112497;28;20019;-39
2022/04/15 11:21:30;;;;;;;2.47;2.22;;;;;;;33.69;9.43;93646.78;5112111;28;20030;-39
2022/04/15 11:24:07;;;;;;;12.80;2.78;;;;;;;33.87;10.15;93640.53;5112320;28;20757;-40
2022/04/15 11:26:34;;;;;;;14.23;2.40;;;;;;;33.74;10.64;93638.94;5112435;28;20100;-40
2022/04/15 11:29:02;;;;;;;6.20;1.90;;;;;;;32.64;8.74;93633.97;5112230;28;20024;-41
2022/04/15 11:31:29;;;;;;;1.42;1.33;;;;;;;32.14;11.39;93628.16;5111934;28;20077;-42
2022/04/15 11:33:56;;;;;;;3.42;1.73;;;;;;;32.11;11.20;93625.97;5111825;27;20120;-41
2022/04/15 11:36:23;;;;;;;3.37;2.20;;;;;;;31.77;12.25;93626.06;5103588;28;20026;-42